Portada
METAR-TAF:

METAR-TAF

Aeropuertos :

Aeropuerto Internacional de Bandar Abbás

Bandar Abbas, Irán

latitud: 27-13N, longitud: 056-22E, altitud: 10 m

Observación

El informe se hizo hace 35 minutos, a las 04:00 UTC
Viento 4 kt del oeste-noroeste
Temperatura 20°C
Humedad 78%
Presión 1014 hPa
Visibilidad: 3500 m
calima

METAR: OIKB 090400Z 30004KT 3500 HZ NSC 20/16 Q1014 A2995 NOSIG

Hora: 08:05 (04:35 UTC)

Pronóstico

El informe se hizo hace 5 horas y 35 minutos, a las 23:00 UTC
Pronóstico válido del 09 a las 00 UTC al 10 a las 06 UTC
Viento 6 kt del oeste-suroeste
Visibilidad: 5000 m
calima
Temporalmente
del 09 a las 00 UTC al 09 a las 04 UTC
Visibilidad: 3000 m
Temporalmente
del 09 a las 08 UTC al 09 a las 14 UTC
Viento 16 kt del sur-suroeste

TAF: OIKB 082300Z 0900/1006 24006KT 5000 HZ NSC TEMPO 0900/0904 3000 BR/HZ TEMPO 0908/0914 21016KT

Observaciones y pronósticos meteorológicos de más de 4000 aeropuertos (mensajes METAR y TAF).

Los puntos amarillos y rojos representan las estaciones disponibles.

Ponga el ratón en el punto deseado para ver el nombre de la estación.

Haga clic para ver las observaciones y los pronósticos meteorológicos.

Para cambiar el mapa : haga clic en los botones verdes con una cruz de color negro para hacer un zoom, en el botón verde con un guión para alejar o en las flechas verdes para mapas adyacentes.


METAR-TAF: